Time;durP1;ratioP1;P1;durP2;ratioP2;P2;SDS_P1;SDS_P2;PMS_P1;PMS_P2;Temp;Humidity;BMP_temperature;BMP_pressure;BME280_temperature;BME280_humidity;BME280_pressure;Samples;Min_cycle;Max_cycle;Signal;HPM_P1;HPM_P2
2023/06/23 00:01:26;;;;;;;1.43;1.10;;;20.20;99.90;;;;;;5087706;28;20464;-70
2023/06/23 00:03:55;;;;;;;1.57;1.40;;;20.20;99.90;;;;;;5087539;28;20944;-70
2023/06/23 00:06:21;;;;;;;1.40;1.30;;;20.10;99.90;;;;;;5087511;28;20472;-70
2023/06/23 00:08:48;;;;;;;2.53;1.70;;;20.00;99.90;;;;;;5087409;28;20829;-69
2023/06/23 00:11:16;;;;;;;1.70;1.60;;;20.00;99.90;;;;;;5087744;28;20491;-70
2023/06/23 00:13:43;;;;;;;1.50;1.40;;;19.90;99.90;;;;;;5087240;28;20486;-69
2023/06/23 00:16:10;;;;;;;1.50;1.13;;;19.90;99.90;;;;;;5086950;28;20955;-70
2023/06/23 00:18:39;;;;;;;1.60;1.40;;;19.90;99.90;;;;;;5086909;28;20462;-70
2023/06/23 00:21:06;;;;;;;1.30;1.20;;;19.80;99.90;;;;;;5087493;28;20456;-69
2023/06/23 00:23:33;;;;;;;1.70;1.60;;;19.80;99.90;;;;;;5087174;28;20487;-69
2023/06/23 00:26:01;;;;;;;1.80;1.57;;;19.70;99.90;;;;;;5086856;28;20834;-72
2023/06/23 00:28:29;;;;;;;2.10;1.57;;;19.60;99.90;;;;;;5086915;28;20488;-72
2023/06/23 00:30:56;;;;;;;1.60;1.50;;;19.50;99.90;;;;;;5086597;28;20459;-72
2023/06/23 00:33:23;;;;;;;2.83;1.57;;;19.50;99.90;;;;;;5086379;28;20492;-72
2023/06/23 00:35:50;;;;;;;1.53;1.40;;;19.50;99.90;;;;;;5085974;28;20484;-70
2023/06/23 00:38:16;;;;;;;1.77;1.63;;;19.40;99.90;;;;;;5087214;28;20909;-70
2023/06/23 00:40:43;;;;;;;1.87;1.70;;;19.40;99.90;;;;;;5086800;28;20867;-70
2023/06/23 00:43:10;;;;;;;2.17;1.80;;;19.30;99.90;;;;;;5087132;28;20461;-69
2023/06/23 00:45:38;;;;;;;1.67;1.40;;;19.30;99.90;;;;;;5086027;28;20905;-70
2023/06/23 00:48:06;;;;;;;1.63;1.50;;;19.30;99.90;;;;;;5086962;28;20481;-70
2023/06/23 00:50:32;;;;;;;1.83;1.67;;;19.20;99.90;;;;;;5086778;28;20450;-69
2023/06/23 00:53:00;;;;;;;3.10;1.50;;;19.20;99.90;;;;;;5086568;28;20485;-70
2023/06/23 00:55:28;;;;;;;1.90;1.53;;;19.20;99.90;;;;;;5086303;28;20457;-70
2023/06/23 00:57:57;;;;;;;2.60;1.80;;;19.20;99.90;;;;;;5086635;28;20848;-69
2023/06/23 01:00:27;;;;;;;1.70;1.40;;;19.20;99.90;;;;;;5086749;28;20870;-70
2023/06/23 01:02:59;;;;;;;3.17;1.97;;;19.20;99.90;;;;;;5086144;28;20494;-70
2023/06/23 01:05:28;;;;;;;1.93;1.50;;;19.20;99.90;;;;;;5072763;28;20458;-70
2023/06/23 01:08:04;;;;;;;1.63;1.43;;;19.20;99.90;;;;;;5073084;28;20486;-70
2023/06/23 01:10:36;;;;;;;1.90;1.70;;;19.20;99.90;;;;;;5072812;28;20840;-69
2023/06/23 01:13:12;;;;;;;1.70;1.60;;;19.20;99.90;;;;;;5072916;28;20474;-70
2023/06/23 01:15:43;;;;;;;1.50;1.40;;;19.20;99.90;;;;;;5071980;28;20956;-70
2023/06/23 01:18:17;;;;;;;1.97;1.40;;;19.20;99.90;;;;;;5072921;28;20881;-69
2023/06/23 01:20:46;;;;;;;1.73;1.33;;;19.20;99.90;;;;;;5072594;28;20468;-70
2023/06/23 01:23:35;;;;;;;2.50;2.20;;;19.20;99.90;;;;;;5072930;28;20454;-70
2023/06/23 01:26:10;;;;;;;2.50;2.30;;;19.10;99.90;;;;;;5072592;28;20466;-70
2023/06/23 01:28:48;;;;;;;2.67;2.00;;;19.00;99.90;;;;;;5072644;28;20908;-70
2023/06/23 01:31:20;;;;;;;2.07;1.87;;;18.90;99.90;;;;;;5072666;28;20466;-70
2023/06/23 01:33:50;;;;;;;3.10;2.13;;;18.80;99.90;;;;;;5072025;28;20487;-69
2023/06/23 01:36:23;;;;;;;2.50;2.30;;;18.70;99.90;;;;;;5072022;28;20817;-69
2023/06/23 01:38:53;;;;;;;2.27;2.07;;;18.60;99.90;;;;;;5072026;28;20533;-70
2023/06/23 01:41:24;;;;;;;2.90;2.20;;;18.40;99.90;;;;;;5072610;28;20465;-70
2023/06/23 01:43:56;;;;;;;2.53;2.20;;;18.30;99.90;;;;;;5071910;28;20958;-70
2023/06/23 01:46:34;;;;;;;2.20;2.00;;;18.20;99.90;;;;;;5071844;28;20930;-69
2023/06/23 01:49:05;;;;;;;3.03;2.03;;;18.20;99.90;;;;;;5072362;28;20462;-70
2023/06/23 01:51:33;;;;;;;3.23;2.93;;;18.10;99.90;;;;;;5072327;28;20481;-70
2023/06/23 01:54:00;;;;;;;2.60;2.40;;;18.00;99.90;;;;;;5071951;28;20483;-69
2023/06/23 01:56:28;;;;;;;3.00;2.60;;;18.00;99.90;;;;;;5071752;28;20474;-70
2023/06/23 01:58:58;;;;;;;3.70;2.90;;;18.00;99.90;;;;;;5071736;28;20459;-70
2023/06/23 02:01:26;;;;;;;3.13;2.50;;;17.90;99.90;;;;;;5071812;28;20459;-70
2023/06/23 02:03:53;;;;;;;3.40;2.60;;;17.80;99.90;;;;;;5071522;28;20455;-69
2023/06/23 02:06:21;;;;;;;3.53;2.53;;;17.80;99.90;;;;;;5071370;28;20463;-70
2023/06/23 02:08:50;;;;;;;2.90;2.53;;;17.70;99.90;;;;;;5071557;28;20458;-70
2023/06/23 02:11:18;;;;;;;2.53;2.30;;;17.60;99.90;;;;;;5072004;28;20836;-69
2023/06/23 02:13:46;;;;;;;2.57;2.37;;;17.60;99.90;;;;;;5071175;28;20478;-70
2023/06/23 02:16:15;;;;;;;2.00;1.83;;;17.60;99.90;;;;;;5070237;28;20463;-70
2023/06/23 02:18:42;;;;;;;2.63;2.40;;;17.50;99.90;;;;;;5071493;28;20469;-69
2023/06/23 02:21:11;;;;;;;2.67;2.00;;;17.50;99.90;;;;;;5071734;28;20466;-69
2023/06/23 02:23:39;;;;;;;2.80;2.10;;;17.40;99.90;;;;;;5071451;28;20455;-70
2023/06/23 02:26:07;;;;;;;2.10;2.00;;;17.50;99.90;;;;;;5071090;28;20482;-70
2023/06/23 02:28:34;;;;;;;2.50;2.17;;;17.40;99.90;;;;;;5071321;28;20466;-70
2023/06/23 02:31:03;;;;;;;2.87;2.57;;;17.40;99.90;;;;;;5071288;28;20465;-70
2023/06/23 02:33:31;;;;;;;3.13;2.80;;;17.30;99.90;;;;;;5071411;28;20478;-70
2023/06/23 02:35:59;;;;;;;2.50;2.30;;;17.30;99.90;;;;;;5070578;28;20972;-70
2023/06/23 02:38:28;;;;;;;3.57;2.83;;;17.30;99.90;;;;;;5071350;28;20485;-70
2023/06/23 02:40:57;;;;;;;2.63;2.43;;;17.20;99.90;;;;;;5070812;28;20861;-70
2023/06/23 02:43:29;;;;;;;3.47;3.07;;;17.20;99.90;;;;;;5071265;28;20454;-70
2023/06/23 02:46:01;;;;;;;3.07;2.73;;;17.20;99.90;;;;;;5070487;28;20474;-70
2023/06/23 02:48:37;;;;;;;3.13;2.63;;;17.20;99.90;;;;;;5071295;28;20485;-70
2023/06/23 02:51:06;;;;;;;3.57;2.87;;;17.20;99.90;;;;;;5071175;28;20465;-70
2023/06/23 02:53:35;;;;;;;3.40;2.80;;;17.20;99.90;;;;;;5070835;28;20478;-71
2023/06/23 02:56:06;;;;;;;3.33;3.03;;;17.20;99.90;;;;;;5070315;28;20969;-70
2023/06/23 02:58:34;;;;;;;2.97;2.67;;;17.20;99.90;;;;;;5071092;28;20466;-70
2023/06/23 03:01:03;;;;;;;4.30;3.43;;;17.20;99.90;;;;;;5070454;28;21000;-70
2023/06/23 03:03:33;;;;;;;3.97;3.40;;;17.10;99.90;;;;;;5070813;28;20451;-70
2023/06/23 03:06:01;;;;;;;3.67;2.87;;;17.20;99.90;;;;;;5069944;28;20462;-70
2023/06/23 03:08:28;;;;;;;3.80;3.40;;;17.20;99.90;;;;;;5070576;28;20483;-70
2023/06/23 03:10:55;;;;;;;3.60;3.17;;;17.20;99.90;;;;;;5070332;28;20950;-71
2023/06/23 03:13:22;;;;;;;3.93;3.40;;;17.20;99.90;;;;;;5070592;28;20514;-70
2023/06/23 03:15:52;;;;;;;4.13;3.20;;;17.30;99.90;;;;;;5069885;28;20844;-70
2023/06/23 03:18:25;;;;;;;5.00;3.80;;;17.30;99.90;;;;;;5070568;28;20997;-69
2023/06/23 03:20:53;;;;;;;5.37;4.87;;;17.20;99.90;;;;;;5069924;28;20466;-70
2023/06/23 03:23:25;;;;;;;4.17;3.33;;;17.20;99.90;;;;;;5070523;28;20458;-69
2023/06/23 03:25:52;;;;;;;4.73;4.23;;;17.20;99.90;;;;;;5069056;28;20459;-69
2023/06/23 03:28:25;;;;;;;4.43;4.03;;;17.30;99.90;;;;;;5070064;28;20479;-69
2023/06/23 03:30:57;;;;;;;4.33;3.40;;;17.30;99.90;;;;;;5069463;28;20463;-69
2023/06/23 03:33:28;;;;;;;4.63;3.90;;;17.30;99.90;;;;;;5057894;28;21005;-71
2023/06/23 03:35:59;;;;;;;4.90;3.57;;;17.30;99.90;;;;;;5057309;28;20471;-70
2023/06/23 03:38:31;;;;;;;4.73;4.10;;;17.30;99.90;;;;;;5055135;28;20483;-71
2023/06/23 03:41:03;;;;;;;4.70;3.80;;;17.30;99.90;;;;;;5057969;28;20459;-71
2023/06/23 03:43:35;;;;;;;5.40;4.37;;;17.30;99.90;;;;;;5065717;22;20492;-71
2023/06/23 03:46:06;;;;;;;4.87;4.37;;;17.40;99.90;;;;;;5043020;28;20451;-73
2023/06/23 03:48:37;;;;;;;5.87;3.97;;;17.40;99.90;;;;;;5024160;28;20952;-74
2023/06/23 03:51:06;;;;;;;4.97;4.37;;;17.40;99.90;;;;;;5027729;28;20487;-74
2023/06/23 03:53:35;;;;;;;3.93;3.00;;;17.40;99.90;;;;;;5023849;28;20477;-72
2023/06/23 03:56:04;;;;;;;8.33;4.60;;;17.40;99.90;;;;;;5022457;28;20471;-72
2023/06/23 03:58:32;;;;;;;4.27;3.83;;;17.40;99.90;;;;;;5022663;28;20964;-73
2023/06/23 04:01:00;;;;;;;4.87;4.47;;;17.40;99.90;;;;;;5022985;28;20468;-73
2023/06/23 04:03:28;;;;;;;4.80;3.90;;;17.50;99.90;;;;;;5022169;28;20453;-73
2023/06/23 04:05:56;;;;;;;7.83;4.67;;;17.50;99.90;;;;;;5023251;28;20456;-73
2023/06/23 04:08:25;;;;;;;6.57;4.70;;;17.50;99.90;;;;;;5018921;28;20488;-73
2023/06/23 04:10:57;;;;;;;4.73;4.30;;;17.50;99.90;;;;;;5023415;28;20468;-74
2023/06/23 04:13:24;;;;;;;4.47;4.00;;;17.50;99.90;;;;;;5018837;28;20488;-74
2023/06/23 04:15:53;;;;;;;5.60;4.93;;;17.50;99.90;;;;;;5023164;28;20535;-73
2023/06/23 04:18:22;;;;;;;7.67;4.67;;;17.50;99.90;;;;;;5021850;28;20487;-73
2023/06/23 04:20:50;;;;;;;6.47;5.53;;;17.50;99.90;;;;;;5023688;28;20472;-72
2023/06/23 04:23:18;;;;;;;5.77;5.17;;;17.50;99.90;;;;;;5021096;28;20461;-73
2023/06/23 04:25:49;;;;;;;6.17;5.67;;;17.60;99.90;;;;;;5022220;28;20469;-73
2023/06/23 04:28:21;;;;;;;6.07;5.40;;;17.50;99.90;;;;;;5028487;28;20523;-73
2023/06/23 04:30:49;;;;;;;6.20;5.40;;;17.60;99.90;;;;;;5028150;28;20971;-72
2023/06/23 04:33:16;;;;;;;6.33;5.73;;;17.60;99.90;;;;;;5028051;28;20477;-73
2023/06/23 04:35:43;;;;;;;8.13;5.30;;;17.70;99.90;;;;;;5009466;28;20461;-73
2023/06/23 04:38:13;;;;;;;5.63;5.03;;;17.60;99.90;;;;;;5008759;28;20505;-73
2023/06/23 04:40:42;;;;;;;5.53;4.97;;;17.60;99.90;;;;;;5010725;28;20464;-73
2023/06/23 04:43:13;;;;;;;8.43;6.03;;;17.60;99.90;;;;;;5012373;28;20461;-72
2023/06/23 04:45:46;;;;;;;6.53;5.83;;;17.60;99.90;;;;;;5012218;28;20457;-72
2023/06/23 04:48:14;;;;;;;7.07;5.80;;;17.60;99.90;;;;;;5013351;28;20504;-73
2023/06/23 04:50:43;;;;;;;6.87;5.90;;;17.60;99.90;;;;;;5029537;28;20460;-73
2023/06/23 04:53:17;;;;;;;5.97;5.00;;;17.60;99.90;;;;;;5033166;28;20833;-72
2023/06/23 04:55:48;;;;;;;5.93;5.20;;;17.50;99.90;;;;;;5031939;28;20491;-72
2023/06/23 04:58:17;;;;;;;7.53;5.70;;;17.50;99.90;;;;;;5013287;28;20871;-73
2023/06/23 05:00:46;;;;;;;8.57;6.20;;;17.50;99.90;;;;;;5013086;28;20469;-72
2023/06/23 05:03:14;;;;;;;9.13;6.57;;;17.50;99.90;;;;;;5032093;28;20460;-72
2023/06/23 05:05:43;;;;;;;8.17;5.80;;;17.50;99.90;;;;;;5032348;28;20819;-72
2023/06/23 05:08:11;;;;;;;8.27;6.87;;;17.50;99.90;;;;;;5032321;28;20504;-72
2023/06/23 05:10:40;;;;;;;7.70;6.90;;;17.50;99.90;;;;;;5032962;28;20462;-72
2023/06/23 05:13:08;;;;;;;7.53;6.07;;;17.50;99.90;;;;;;5032373;28;20470;-72
2023/06/23 05:15:35;;;;;;;9.77;7.10;;;17.50;99.90;;;;;;5032150;28;20840;-72
2023/06/23 05:18:06;;;;;;;8.93;6.97;;;17.50;99.90;;;;;;5032134;28;20487;-71
2023/06/23 05:20:35;;;;;;;10.47;6.37;;;17.50;99.90;;;;;;5032769;28;20829;-72
2023/06/23 05:23:05;;;;;;;7.20;5.70;;;17.50;99.90;;;;;;5032073;28;20471;-72
2023/06/23 05:25:34;;;;;;;9.47;7.87;;;17.60;99.90;;;;;;5032114;28;20465;-72
2023/06/23 05:28:02;;;;;;;10.40;8.20;;;17.60;99.90;;;;;;5032100;28;20488;-72
2023/06/23 05:30:30;;;;;;;10.87;7.90;;;17.60;99.90;;;;;;5032636;28;20472;-73
2023/06/23 05:33:00;;;;;;;16.60;8.93;;;17.60;99.90;;;;;;5032045;28;20843;-72
2023/06/23 05:35:29;;;;;;;8.73;7.60;;;17.60;99.90;;;;;;5031841;28;20484;-72
2023/06/23 05:37:57;;;;;;;13.13;9.57;;;17.60;99.90;;;;;;5031900;28;21006;-72
2023/06/23 05:40:24;;;;;;;11.07;8.00;;;17.60;99.90;;;;;;5018854;28;20884;-72
2023/06/23 05:42:51;;;;;;;10.03;8.20;;;17.60;99.90;;;;;;5012104;28;20983;-73
2023/06/23 05:45:17;;;;;;;10.73;8.90;;;17.60;99.90;;;;;;5024540;28;20465;-73
2023/06/23 05:47:54;;;;;;;8.93;7.63;;;17.60;99.90;;;;;;5032091;28;20491;-71
2023/06/23 05:50:24;;;;;;;12.03;8.43;;;17.70;99.90;;;;;;5012317;28;20819;-73
2023/06/23 05:52:58;;;;;;;15.23;10.27;;;17.70;99.90;;;;;;5029218;28;20460;-73
2023/06/23 05:55:27;;;;;;;13.70;10.93;;;17.70;99.90;;;;;;5031295;28;20483;-72
2023/06/23 05:57:59;;;;;;;11.27;8.70;;;17.70;99.90;;;;;;5031658;28;20489;-72
2023/06/23 06:00:30;;;;;;;13.00;9.97;;;17.70;99.90;;;;;;5032066;28;21031;-72
2023/06/23 06:02:59;;;;;;;12.33;10.03;;;17.70;99.90;;;;;;5031572;28;20467;-72
2023/06/23 06:05:28;;;;;;;13.33;10.47;;;17.70;99.90;;;;;;5031521;28;20456;-72
2023/06/23 06:07:58;;;;;;;11.47;8.90;;;17.70;99.90;;;;;;5031223;28;20495;-72
2023/06/23 06:10:27;;;;;;;12.20;8.83;;;17.70;99.90;;;;;;5031775;28;20838;-72
2023/06/23 06:12:56;;;;;;;12.00;8.70;;;17.80;99.90;;;;;;5031618;28;20500;-72
2023/06/23 06:15:23;;;;;;;10.73;9.40;;;17.90;99.90;;;;;;5030805;28;20472;-72
2023/06/23 06:17:51;;;;;;;10.20;9.13;;;17.90;99.90;;;;;;5031183;28;20484;-72
2023/06/23 06:20:19;;;;;;;11.47;8.87;;;18.00;99.90;;;;;;5031394;28;20967;-72
2023/06/23 06:22:50;;;;;;;16.37;10.47;;;18.00;99.90;;;;;;5031362;28;20523;-72
2023/06/23 06:25:18;;;;;;;11.40;9.20;;;18.00;99.90;;;;;;5030656;28;20551;-72
2023/06/23 06:27:47;;;;;;;10.87;9.30;;;18.00;99.90;;;;;;5024286;28;20485;-72
2023/06/23 06:30:17;;;;;;;12.63;9.70;;;18.10;99.90;;;;;;5010989;28;20453;-72
2023/06/23 06:32:45;;;;;;;11.23;9.00;;;18.10;99.90;;;;;;5011270;28;20544;-72
2023/06/23 06:35:15;;;;;;;10.07;8.40;;;18.10;99.90;;;;;;5021508;28;20480;-72
2023/06/23 06:37:47;;;;;;;12.60;9.20;;;18.20;99.90;;;;;;5030781;28;20512;-72
2023/06/23 06:40:20;;;;;;;13.57;9.07;;;18.20;99.90;;;;;;5022899;28;20503;-72
2023/06/23 06:42:47;;;;;;;10.97;9.73;;;18.30;99.90;;;;;;5030704;28;21052;-72
2023/06/23 06:45:14;;;;;;;12.70;9.13;;;18.50;99.90;;;;;;5010591;28;20527;-72
2023/06/23 06:47:44;;;;;;;11.10;9.03;;;18.60;99.90;;;;;;5025999;28;20480;-72
2023/06/23 06:50:14;;;;;;;11.70;8.33;;;18.70;99.90;;;;;;5030168;28;20486;-72
2023/06/23 06:52:42;;;;;;;13.37;9.60;;;18.80;99.90;;;;;;5030552;28;20457;-72
2023/06/23 06:55:15;;;;;;;10.80;8.43;;;18.90;99.90;;;;;;5018905;28;20992;-72
2023/06/23 06:57:45;;;;;;;11.00;8.80;;;18.90;99.90;;;;;;5026288;28;20493;-72
2023/06/23 07:00:14;;;;;;;11.70;8.90;;;18.90;99.90;;;;;;5029825;28;20476;-72
2023/06/23 07:02:42;;;;;;;12.37;8.77;;;18.90;99.90;;;;;;5029891;28;20968;-72
2023/06/23 07:05:09;;;;;;;9.10;7.73;;;19.00;99.90;;;;;;5018771;28;20458;-72
2023/06/23 07:07:37;;;;;;;10.20;8.77;;;19.00;99.90;;;;;;5025238;28;20645;-72
2023/06/23 07:10:05;;;;;;;9.47;8.47;;;19.00;99.90;;;;;;5029966;28;20461;-72
2023/06/23 07:12:33;;;;;;;10.37;9.00;;;19.10;99.90;;;;;;5030155;28;20972;-72
2023/06/23 07:15:02;;;;;;;10.77;7.87;;;19.10;99.90;;;;;;5020108;28;20485;-72
2023/06/23 07:17:32;;;;;;;10.77;7.60;;;19.10;99.90;;;;;;5024441;28;21068;-72
2023/06/23 07:19:59;;;;;;;11.10;7.70;;;19.10;99.90;;;;;;5029825;28;20468;-72
2023/06/23 07:22:27;;;;;;;7.47;6.67;;;19.20;99.90;;;;;;5030434;28;20534;-72
2023/06/23 07:24:55;;;;;;;9.57;7.20;;;19.30;99.90;;;;;;5028971;28;20559;-72
2023/06/23 07:27:23;;;;;;;10.50;8.03;;;19.40;99.90;;;;;;5029738;28;20497;-73
2023/06/23 07:29:50;;;;;;;8.20;7.40;;;19.30;99.90;;;;;;5029863;28;20460;-72
2023/06/23 07:32:18;;;;;;;9.87;7.30;;;19.30;99.90;;;;;;5030258;28;20559;-73
2023/06/23 07:34:44;;;;;;;10.03;7.83;;;19.30;99.90;;;;;;5029489;28;20519;-72
2023/06/23 07:37:11;;;;;;;10.00;7.57;;;19.30;99.90;;;;;;5020092;28;20484;-72
2023/06/23 07:39:39;;;;;;;7.10;6.10;;;19.40;99.90;;;;;;5029853;28;20472;-72
2023/06/23 07:42:07;;;;;;;8.03;7.20;;;19.40;99.90;;;;;;5029419;28;20515;-72
2023/06/23 07:44:36;;;;;;;8.80;7.00;;;19.50;99.90;;;;;;5029503;28;20526;-72
2023/06/23 07:47:05;;;;;;;8.13;6.87;;;19.50;99.90;;;;;;5029015;28;20483;-72
2023/06/23 07:49:33;;;;;;;11.70;7.20;;;19.50;99.90;;;;;;5022062;28;21019;-71
2023/06/23 07:52:04;;;;;;;9.50;7.30;;;19.60;99.90;;;;;;5021065;28;20516;-72
2023/06/23 07:54:32;;;;;;;8.27;7.27;;;19.60;99.90;;;;;;5029456;28;20552;-72
2023/06/23 07:57:01;;;;;;;8.10;6.40;;;19.70;99.90;;;;;;5028968;28;20485;-72
2023/06/23 07:59:29;;;;;;;7.83;6.47;;;19.70;99.90;;;;;;5029527;28;20807;-72
2023/06/23 08:01:56;;;;;;;8.50;6.60;;;19.70;99.90;;;;;;5029165;28;20474;-71
2023/06/23 08:04:23;;;;;;;8.13;6.50;;;19.80;99.90;;;;;;5025465;28;20474;-71
2023/06/23 08:06:52;;;;;;;8.83;6.37;;;19.80;99.90;;;;;;5024810;28;20868;-72
2023/06/23 08:09:19;;;;;;;8.17;6.37;;;19.90;99.90;;;;;;5018053;28;20467;-72
2023/06/23 08:11:47;;;;;;;6.00;5.40;;;20.00;99.90;;;;;;5018534;28;20462;-72
2023/06/23 08:14:14;;;;;;;7.27;6.57;;;20.10;99.90;;;;;;5030099;28;20849;-72
2023/06/23 08:16:41;;;;;;;6.60;5.90;;;20.20;99.90;;;;;;5033094;28;20483;-72
2023/06/23 08:19:09;;;;;;;5.97;5.30;;;20.20;99.90;;;;;;5023930;28;20885;-72
2023/06/23 08:21:37;;;;;;;6.20;5.60;;;20.00;99.90;;;;;;5025577;28;20457;-72
2023/06/23 08:24:06;;;;;;;7.40;6.43;;;20.00;99.90;;;;;;5032900;28;20552;-72
2023/06/23 08:26:34;;;;;;;8.67;7.00;;;19.90;99.90;;;;;;5033103;28;20979;-72
2023/06/23 08:29:01;;;;;;;6.80;5.77;;;20.00;99.90;;;;;;5015463;28;20464;-72
2023/06/23 08:31:28;;;;;;;6.20;5.50;;;20.00;99.90;;;;;;5026385;28;20469;-72
2023/06/23 08:33:55;;;;;;;5.20;4.70;;;19.90;99.90;;;;;;5018256;28;20454;-72
2023/06/23 08:36:22;;;;;;;6.80;5.40;;;19.90;99.90;;;;;;5032349;28;20476;-72
2023/06/23 08:38:50;;;;;;;7.70;5.60;;;19.90;99.90;;;;;;5032925;28;20540;-72
2023/06/23 08:41:21;;;;;;;6.20;5.60;;;19.90;99.90;;;;;;5032767;28;20515;-72
2023/06/23 08:43:49;;;;;;;8.43;6.53;;;19.80;99.90;;;;;;5026673;28;20465;-71
2023/06/23 08:46:18;;;;;;;6.73;5.80;;;19.70;99.90;;;;;;5031869;28;20464;-72
2023/06/23 08:48:47;;;;;;;9.23;6.20;;;19.70;99.90;;;;;;5032654;28;20464;-72
2023/06/23 08:51:15;;;;;;;5.40;4.87;;;19.70;99.90;;;;;;5032433;28;20457;-72
2023/06/23 08:53:42;;;;;;;8.20;5.70;;;19.80;99.90;;;;;;5032647;28;20520;-72
2023/06/23 08:56:10;;;;;;;5.30;4.80;;;19.80;99.90;;;;;;5031504;28;20488;-72
2023/06/23 08:58:38;;;;;;;5.97;5.37;;;19.70;99.90;;;;;;5032549;28;20470;-72
2023/06/23 09:01:05;;;;;;;7.00;5.87;;;19.70;99.90;;;;;;5032410;28;20533;-72
2023/06/23 09:03:32;;;;;;;5.87;5.13;;;19.60;99.90;;;;;;5032452;28;20462;-71
2023/06/23 09:06:00;;;;;;;6.63;5.03;;;19.60;99.90;;;;;;5031730;28;20461;-72
2023/06/23 09:08:27;;;;;;;5.60;4.90;;;19.70;99.90;;;;;;5032448;28;20567;-72
2023/06/23 09:10:53;;;;;;;5.70;5.10;;;19.90;99.90;;;;;;5032968;28;20462;-71
2023/06/23 09:13:23;;;;;;;6.47;5.50;;;20.00;99.90;;;;;;5032039;28;20487;-72
2023/06/23 09:15:52;;;;;;;6.37;5.03;;;20.20;99.90;;;;;;5032372;28;20566;-72
2023/06/23 09:18:19;;;;;;;6.30;5.37;;;20.40;99.90;;;;;;5027517;28;20495;-71
2023/06/23 09:20:48;;;;;;;8.80;5.00;;;20.60;99.90;;;;;;5012376;28;20467;-72
2023/06/23 09:23:16;;;;;;;7.67;6.00;;;20.70;99.90;;;;;;5031134;28;20466;-71
2023/06/23 09:25:44;;;;;;;5.40;4.90;;;21.00;99.90;;;;;;5031781;28;20963;-72
2023/06/23 09:28:27;;;;;;;6.83;5.43;;;21.20;99.90;;;;;;5031218;28;20518;-71
2023/06/23 09:30:57;;;;;;;6.43;5.70;;;21.40;99.90;;;;;;5030566;28;20503;-72
2023/06/23 09:33:25;;;;;;;5.77;5.17;;;21.50;99.90;;;;;;5032154;28;20524;-72
2023/06/23 09:35:53;;;;;;;5.40;4.90;;;21.40;99.90;;;;;;5031717;28;20483;-72
2023/06/23 09:38:22;;;;;;;5.30;4.67;;;21.30;99.90;;;;;;5031666;28;20987;-72
2023/06/23 09:41:00;;;;;;;8.10;5.60;;;21.30;99.90;;;;;;5032524;28;20471;-72
2023/06/23 09:43:27;;;;;;;5.60;5.07;;;21.10;99.90;;;;;;5053826;22;20509;-90
2023/06/23 09:45:55;;;;;;;7.37;4.80;;;21.20;99.90;;;;;;5060068;28;20467;-89
2023/06/23 09:48:22;;;;;;;6.73;5.10;;;21.30;99.90;;;;;;5060690;28;20534;-90
2023/06/23 09:51:00;;;;;;;5.00;4.37;;;21.50;99.90;;;;;;5066466;28;20450;-91
2023/06/23 09:53:32;;;;;;;5.90;5.27;;;21.80;99.90;;;;;;5065536;28;20498;-90
2023/06/23 09:56:03;;;;;;;5.33;4.83;;;21.90;99.90;;;;;;5071320;28;20475;-90
2023/06/23 10:02:01;;;;;;;7.10;4.90;;;21.80;99.90;;;;;;5025731;28;20453;-91
2023/06/23 10:04:29;;;;;;;4.40;4.00;;;21.90;99.90;;;;;;5059709;28;20579;-90
2023/06/23 10:06:56;;;;;;;5.27;4.37;;;22.00;99.90;;;;;;5063498;28;20467;-91
2023/06/23 10:09:24;;;;;;;4.90;4.40;;;22.00;99.90;;;;;;5077831;28;20432;-92
2023/06/23 10:11:51;;;;;;;5.73;4.50;;;22.20;99.90;;;;;;5078160;28;20454;-89
2023/06/23 10:14:18;;;;;;;5.10;4.50;;;22.30;99.90;;;;;;5077609;28;20486;-91
2023/06/23 10:16:45;;;;;;;6.70;5.47;;;22.30;99.90;;;;;;5078211;28;20562;-90
2023/06/23 10:19:14;;;;;;;6.03;5.20;;;22.40;99.90;;;;;;5073494;28;20491;-90
2023/06/23 10:21:43;;;;;;;5.53;4.43;;;22.50;99.90;;;;;;5065732;28;20452;-91
2023/06/23 10:24:16;;;;;;;5.83;5.33;;;22.50;99.90;;;;;;5056941;28;20471;-91
2023/06/23 10:26:46;;;;;;;5.27;4.10;;;22.60;99.90;;;;;;5076209;28;20450;-90
2023/06/23 10:29:14;;;;;;;5.30;3.87;;;22.60;99.90;;;;;;5078198;28;20436;-90
2023/06/23 10:31:42;;;;;;;5.33;4.83;;;22.70;99.90;;;;;;5078055;28;20450;-90
2023/06/23 10:34:13;;;;;;;4.70;4.30;;;22.80;99.90;;;;;;5077727;28;20478;-90
2023/06/23 10:36:42;;;;;;;5.63;4.60;;;22.80;99.90;;;;;;5076256;28;20467;-90
2023/06/23 10:39:10;;;;;;;4.80;4.33;;;22.80;99.90;;;;;;5077941;28;20444;-90
2023/06/23 10:41:39;;;;;;;4.97;4.30;;;22.70;99.90;;;;;;5077994;28;20448;-90
2023/06/23 10:44:06;;;;;;;4.10;3.67;;;22.50;99.90;;;;;;5077054;28;20468;-90
2023/06/23 10:46:35;;;;;;;5.10;4.50;;;22.30;99.90;;;;;;5077806;28;20454;-91
2023/06/23 10:49:04;;;;;;;4.50;4.10;;;22.10;99.90;;;;;;5077686;28;20479;-91
2023/06/23 10:51:33;;;;;;;4.43;3.53;;;21.80;99.90;;;;;;5077599;28;20569;-93
2023/06/23 10:54:01;;;;;;;5.03;4.40;;;21.80;99.90;;;;;;5077125;28;20469;-92
2023/06/23 10:56:32;;;;;;;5.47;4.73;;;22.10;99.90;;;;;;5075514;28;20517;-92
2023/06/23 10:58:59;;;;;;;5.70;4.97;;;22.20;99.90;;;;;;5076242;28;20507;-92
2023/06/23 11:01:28;;;;;;;5.47;4.60;;;22.30;99.90;;;;;;5076722;28;20528;-93
2023/06/23 11:04:04;;;;;;;5.50;4.20;;;22.60;99.90;;;;;;5076585;28;20471;-92
2023/06/23 11:06:36;;;;;;;4.27;3.87;;;22.80;99.90;;;;;;5076507;28;20441;-93
2023/06/23 11:09:03;;;;;;;4.50;4.10;;;22.80;99.90;;;;;;5076182;28;20458;-93
2023/06/23 11:11:32;;;;;;;4.70;4.13;;;22.80;99.90;;;;;;5076261;28;20818;-92
2023/06/23 11:14:00;;;;;;;6.23;4.07;;;22.60;99.90;;;;;;5076013;28;20487;-93
2023/06/23 11:16:34;;;;;;;4.57;4.17;;;22.40;99.90;;;;;;5075513;28;20552;-91
2023/06/23 11:19:04;;;;;;;4.17;3.77;;;22.40;99.90;;;;;;5075914;28;20437;-92
2023/06/23 11:21:39;;;;;;;5.30;3.93;;;22.40;99.90;;;;;;5075263;28;20460;-93
2023/06/23 11:24:10;;;;;;;4.70;4.20;;;22.50;99.90;;;;;;5061709;28;20479;-93
2023/06/23 11:26:37;;;;;;;4.50;4.10;;;22.60;99.90;;;;;;5058810;28;20456;-92
2023/06/23 11:29:13;;;;;;;4.77;4.03;;;22.40;99.90;;;;;;5056903;28;20475;-91
2023/06/23 11:32:03;;;;;;;4.00;3.60;;;22.20;99.90;;;;;;5059833;28;20470;-92
2023/06/23 11:34:30;;;;;;;3.83;3.53;;;22.00;99.90;;;;;;5058156;28;20476;-90
2023/06/23 11:37:00;;;;;;;5.10;3.87;;;22.00;99.90;;;;;;5060655;28;20476;-93
2023/06/23 11:39:27;;;;;;;4.87;4.37;;;22.30;99.90;;;;;;5061783;28;20460;-94
2023/06/23 11:44:36;;;;;;;4.83;4.43;;;23.00;99.90;;;;;;5060709;28;20487;-93
2023/06/23 11:47:04;;;;;;;7.17;4.20;;;23.10;99.90;;;;;;5062411;28;20510;-93
2023/06/23 11:49:32;;;;;;;5.70;4.37;;;23.00;99.90;;;;;;5061862;28;20817;-93
2023/06/23 11:52:03;;;;;;;4.23;3.83;;;22.80;99.90;;;;;;5062084;28;20468;-92
2023/06/23 11:55:29;;;;;;;6.67;4.27;;;22.70;99.90;;;;;;5062041;28;20840;-94
2023/06/23 11:57:57;;;;;;;5.30;3.57;;;22.60;99.90;;;;;;5050491;28;20476;-92
2023/06/23 12:00:24;;;;;;;4.27;3.87;;;22.50;99.90;;;;;;5068905;28;20506;-93
2023/06/23 12:02:59;;;;;;;4.00;3.60;;;22.40;99.90;;;;;;5066138;28;20435;-93
2023/06/23 12:05:42;;;;;;;7.17;3.80;;;22.50;99.90;;;;;;5065543;28;20444;-93
2023/06/23 12:08:11;;;;;;;4.50;3.90;;;22.80;99.90;;;;;;5062918;28;20510;-93
2023/06/23 12:10:38;;;;;;;4.47;3.80;;;23.30;99.90;;;;;;5059645;28;20959;-93
2023/06/23 12:13:16;;;;;;;5.60;4.17;;;23.50;99.90;;;;;;5060237;28;20459;-91
2023/06/23 12:15:44;;;;;;;4.20;3.80;;;23.70;99.90;;;;;;5037310;28;20451;-91
2023/06/23 12:18:11;;;;;;;3.80;3.43;;;23.80;99.90;;;;;;5037047;28;20452;-89
2023/06/23 12:20:40;;;;;;;4.13;3.73;;;23.80;99.90;;;;;;5034958;28;20467;-90
2023/06/23 12:23:19;;;;;;;3.57;3.27;;;23.60;99.90;;;;;;5036152;28;20831;-90
2023/06/23 12:25:49;;;;;;;3.80;3.23;;;23.40;99.90;;;;;;5056520;28;20556;-90
2023/06/23 12:28:18;;;;;;;4.77;3.20;;;23.10;99.90;;;;;;5056342;28;20539;-90
2023/06/23 12:30:50;;;;;;;3.27;2.97;;;22.90;99.90;;;;;;5055449;28;20463;-90
2023/06/23 12:33:24;;;;;;;3.50;3.20;;;22.70;99.90;;;;;;5054042;28;20904;-91
2023/06/23 12:36:02;;;;;;;5.63;3.43;;;22.50;99.90;;;;;;5055924;28;20461;-91
2023/06/23 12:38:35;;;;;;;3.20;3.00;;;22.40;99.90;;;;;;5068682;28;20474;-93
2023/06/23 12:41:26;;;;;;;4.40;3.80;;;22.30;99.90;;;;;;5058613;28;20466;-93
2023/06/23 12:44:19;;;;;;;5.10;3.93;;;22.20;99.90;;;;;;5068313;28;20568;-93
2023/06/23 12:46:48;;;;;;;3.50;3.20;;;22.40;99.90;;;;;;5064995;28;20798;-93
2023/06/23 12:49:14;;;;;;;3.80;3.50;;;22.90;99.90;;;;;;5059904;28;20547;-92
2023/06/23 12:51:41;;;;;;;3.93;3.53;;;23.30;99.90;;;;;;5056477;28;20471;-92
2023/06/23 12:54:09;;;;;;;4.03;3.63;;;23.60;99.90;;;;;;5055876;28;20480;-92
2023/06/23 12:56:36;;;;;;;4.27;3.87;;;23.90;99.90;;;;;;5057202;28;20490;-93
2023/06/23 12:59:03;;;;;;;3.93;3.60;;;24.10;99.90;;;;;;5057267;28;20472;-93
2023/06/23 13:01:30;;;;;;;3.80;3.50;;;24.10;99.90;;;;;;5060075;28;20465;-93
2023/06/23 13:03:56;;;;;;;3.43;3.13;;;24.00;99.90;;;;;;5062190;28;20521;-92